createdAt,value
2024-01-04T00:04:28.668Z,96964.73
2024-01-04T00:09:31.683Z,96964.59
2024-01-04T00:14:34.800Z,96963.55
2024-01-04T00:19:37.980Z,96964.02
2024-01-04T00:24:41.212Z,96959.15
2024-01-04T00:29:44.506Z,96958.48
2024-01-04T00:34:47.686Z,96954.78
2024-01-04T00:39:51.100Z,96952.09
2024-01-04T00:44:54.253Z,96949.54
2024-01-04T00:49:57.431Z,96942.65
2024-01-04T00:55:00.618Z,96941.31
2024-01-04T01:00:04.774Z,96933.61
2024-01-04T01:05:08.271Z,96922.92
2024-01-04T01:10:11.578Z,96923.32
2024-01-04T01:15:14.976Z,96917.58
2024-01-04T01:20:18.245Z,96917.59
2024-01-04T01:25:21.408Z,96921.87
2024-01-04T01:30:24.830Z,96925.09
2024-01-04T01:35:28.089Z,96926.02
2024-01-04T01:40:31.242Z,96927.42
2024-01-04T01:45:34.477Z,96931.35
2024-01-04T01:50:37.671Z,96926.73
2024-01-04T01:55:41.147Z,96920.56
2024-01-04T02:00:44.919Z,96918.81
2024-01-04T02:05:48.243Z,96924.75
2024-01-04T02:10:51.587Z,96922.73
2024-01-04T02:15:54.758Z,96923.88
2024-01-04T02:20:58.140Z,96930.89
2024-01-04T02:26:02.259Z,96931.75
2024-01-04T02:31:05.546Z,96933.35
2024-01-04T02:36:08.798Z,96942.42
2024-01-04T02:41:11.879Z,96948.02
2024-01-04T02:46:15.031Z,96941.73
2024-01-04T02:51:18.152Z,96943.45
2024-01-04T02:56:21.221Z,96945.02
2024-01-04T03:01:25.076Z,96942.79
2024-01-04T03:06:31.386Z,96939.89
2024-01-04T03:11:34.663Z,96941.58
2024-01-04T03:16:37.801Z,96938.75
2024-01-04T03:21:41.008Z,96936.23
2024-01-04T03:26:44.171Z,96927.42
2024-01-04T03:31:47.556Z,96919.57
2024-01-04T03:36:50.706Z,96920.26
2024-01-04T03:41:53.893Z,96916.85
2024-01-04T03:46:57.157Z,96910.58
2024-01-04T03:52:00.950Z,96908.39
2024-01-04T03:57:04.772Z,96895.61
2024-01-04T04:02:07.857Z,96886.94
2024-01-04T04:07:11.647Z,96888.23
2024-01-04T04:12:14.999Z,96889.29
2024-01-04T04:17:25.804Z,96882.20
2024-01-04T04:22:29.072Z,96881.52
2024-01-04T04:27:32.209Z,96881.17
2024-01-04T04:32:35.663Z,96879.88
2024-01-04T04:37:38.864Z,96878.58
2024-01-04T04:42:42.622Z,96879.68
2024-01-04T04:47:46.108Z,96886.39
2024-01-04T04:52:49.277Z,96888.84
2024-01-04T04:57:52.460Z,96884.44
2024-01-04T05:02:55.844Z,96878.80
2024-01-04T05:07:59.126Z,96878.27
2024-01-04T05:13:04.123Z,96878.44
2024-01-04T05:18:10.208Z,96884.52
2024-01-04T05:23:13.426Z,96885.06
2024-01-04T05:28:16.590Z,96883.62
2024-01-04T05:33:20.186Z,96889.86
2024-01-04T05:38:23.988Z,96890.91
2024-01-04T05:43:28.870Z,96900.67
2024-01-04T05:48:33.120Z,96907.98
2024-01-04T05:53:37.775Z,96910.04
2024-01-04T05:58:41.054Z,96917.86
2024-01-04T06:03:44.430Z,96928.09
2024-01-04T06:08:48.162Z,96934.70
2024-01-04T06:13:51.479Z,96944.27
2024-01-04T06:18:55.800Z,96955.15
2024-01-04T06:23:59.900Z,96967.10
2024-01-04T06:29:03.281Z,96973.60
2024-01-04T06:34:06.592Z,96987.20
2024-01-04T06:39:10.246Z,96993.69
2024-01-04T06:44:13.519Z,97000.81
2024-01-04T06:49:16.892Z,97005.27
2024-01-04T06:54:20.255Z,97000.90
2024-01-04T06:59:23.486Z,96996.71
2024-01-04T07:04:26.670Z,96995.62
2024-01-04T07:09:30.018Z,96996.40
2024-01-04T07:14:33.648Z,96994.02
2024-01-04T07:19:36.837Z,96998.80
2024-01-04T07:24:40.386Z,96999.30
2024-01-04T07:29:43.601Z,97000.52
2024-01-04T07:34:52.899Z,97006.84
2024-01-04T07:40:04.848Z,97005.60
2024-01-04T07:45:09.135Z,97000.27
2024-01-04T07:50:13.496Z,96994.45
2024-01-04T07:55:16.633Z,96989.96
2024-01-04T08:00:20.725Z,96989.58
2024-01-04T08:05:23.841Z,96990.17
2024-01-04T08:10:27.693Z,96992.77
2024-01-04T08:15:34.753Z,96995.31
2024-01-04T08:20:38.012Z,96994.48
2024-01-04T08:25:41.468Z,97000.23
2024-01-04T08:30:44.944Z,97005.29
2024-01-04T08:35:48.378Z,97003.95
2024-01-04T08:40:51.725Z,97010.88
2024-01-04T08:45:54.913Z,97018.26
2024-01-04T08:50:58.242Z,97026.33
2024-01-04T08:56:10.247Z,97035.15
2024-01-04T09:01:13.657Z,97029.45
2024-01-04T09:06:17.934Z,97029.33
2024-01-04T09:11:21.483Z,97025.43
2024-01-04T09:16:24.670Z,97032.21
2024-01-04T09:21:27.920Z,97024.70
2024-01-04T09:26:31.172Z,97024.27
2024-01-04T09:31:35.043Z,97023.45
2024-01-04T09:36:38.221Z,97028.29
2024-01-04T09:41:46.583Z,97033.86
2024-01-04T09:46:50.551Z,97024.82
2024-01-04T09:51:54.451Z,97019.54
2024-01-04T09:57:02.154Z,97021.41
2024-01-04T10:02:08.062Z,97018.06
2024-01-04T10:07:16.668Z,97016.35
2024-01-04T10:12:19.898Z,97015.89
2024-01-04T10:17:23.512Z,97017.80
2024-01-04T10:22:26.776Z,97013.20
2024-01-04T10:27:30.056Z,97018.36
2024-01-04T10:32:33.401Z,97018.65
2024-01-04T10:37:36.975Z,97020.75
2024-01-04T10:42:40.076Z,97035.66
2024-01-04T10:47:49.745Z,97033.86
2024-01-04T10:52:55.986Z,97040.88
2024-01-04T10:58:02.401Z,97043.14
2024-01-04T11:03:08.078Z,97043.80
2024-01-04T11:08:14.230Z,97037.81
2024-01-04T11:13:17.470Z,97031.31
2024-01-04T11:18:33.794Z,97028.84
2024-01-04T11:23:58.250Z,97032.48
2024-01-04T11:29:07.919Z,97034.20
2024-01-04T11:34:13.407Z,97034.50
2024-01-04T11:39:26.682Z,97029.84
2024-01-04T11:44:37.267Z,97035.11
2024-01-04T11:49:53.905Z,97036.23
2024-01-04T11:55:02.851Z,97040.20
2024-01-04T12:00:16.532Z,97043.02
2024-01-04T12:05:21.410Z,97049.27
2024-01-04T12:10:24.988Z,97045.66
2024-01-04T12:15:28.577Z,97044.61
2024-01-04T12:20:32.410Z,97050.67
2024-01-04T12:25:36.523Z,97056.77
2024-01-04T12:30:40.217Z,97058.93
2024-01-04T12:35:43.552Z,97059.80
2024-01-04T12:40:49.800Z,97066.59
2024-01-04T12:46:06.000Z,97075.70
2024-01-04T12:51:10.434Z,97078.65
2024-01-04T12:56:15.836Z,97090.20
2024-01-04T13:01:19.417Z,97134.23
2024-01-04T13:06:23.739Z,97155.58
2024-01-04T13:11:27.975Z,97140.64
2024-01-04T13:16:31.161Z,97143.41
2024-01-04T13:21:34.319Z,97126.04
2024-01-04T13:26:39.137Z,97130.31
2024-01-04T13:31:43.429Z,97145.81
2024-01-04T13:36:46.780Z,97154.79
2024-01-04T13:41:50.448Z,97169.48
2024-01-04T13:46:54.927Z,97182.65
2024-01-04T13:51:58.154Z,97187.79
2024-01-04T13:57:01.354Z,97193.73
2024-01-04T14:02:04.793Z,97197.20
2024-01-04T14:07:09.722Z,97197.99
2024-01-04T14:12:13.537Z,97195.52
2024-01-04T14:17:17.026Z,97196.84
2024-01-04T14:22:20.260Z,97190.71
2024-01-04T14:27:23.437Z,97189.79
2024-01-04T14:32:33.595Z,97187.11
2024-01-04T14:37:41.470Z,97191.61
2024-01-04T14:42:45.887Z,97191.54
2024-01-04T14:47:49.778Z,97193.34
2024-01-04T14:52:53.257Z,97193.85
2024-01-04T14:57:56.919Z,97197.48
2024-01-04T15:03:00.215Z,97199.81
2024-01-04T15:08:04.161Z,97202.41
2024-01-04T15:13:07.511Z,97196.38
2024-01-04T15:18:12.301Z,97201.30
2024-01-04T15:23:16.803Z,97202.38
2024-01-04T15:28:21.088Z,97204.71
2024-01-04T15:33:24.444Z,97206.60
2024-01-04T15:38:28.293Z,97212.91
2024-01-04T15:43:32.491Z,97218.68
2024-01-04T15:48:36.410Z,97226.32
2024-01-04T15:53:40.282Z,97222.55
2024-01-04T15:58:43.353Z,97229.23
2024-01-04T16:03:47.571Z,97232.19
2024-01-04T16:08:51.596Z,97230.03
2024-01-04T16:13:54.839Z,97240.79
2024-01-04T16:18:58.374Z,97244.83
2024-01-04T16:24:02.098Z,97246.48
2024-01-04T16:29:05.364Z,97246.64
2024-01-04T16:34:08.692Z,97242.63
2024-01-04T16:39:14.289Z,97239.39
2024-01-04T16:44:17.589Z,97241.77
2024-01-04T16:49:20.954Z,97238.96
2024-01-04T16:54:24.313Z,97249.52
2024-01-04T16:59:27.542Z,97248.42
2024-01-04T17:04:30.674Z,97252.77
2024-01-04T17:09:33.938Z,97257.89
2024-01-04T17:14:37.987Z,97270.83
2024-01-04T17:19:41.231Z,97274.96
2024-01-04T17:24:44.444Z,97270.67
2024-01-04T17:29:48.040Z,97274.05
2024-01-04T17:34:51.336Z,97287.45
2024-01-04T17:39:54.772Z,97292.62
2024-01-04T17:44:58.420Z,97287.31
2024-01-04T17:50:01.935Z,97284.87
2024-01-04T17:55:07.274Z,97301.02
2024-01-04T18:00:10.985Z,97302.64
2024-01-04T18:05:14.264Z,97315.02
2024-01-04T18:10:18.097Z,97325.78
2024-01-04T18:15:21.410Z,97347.50
2024-01-04T18:20:25.015Z,97364.05
2024-01-04T18:25:28.324Z,97375.50
2024-01-04T18:30:33.542Z,97400.32
2024-01-04T18:35:37.917Z,97401.75
2024-01-04T18:40:41.322Z,97387.35
2024-01-04T18:45:44.547Z,97395.92
2024-01-04T18:50:47.946Z,97405.59
2024-01-04T18:55:51.730Z,97419.58
2024-01-04T19:00:55.093Z,97443.63
2024-01-04T19:05:58.447Z,97450.30
2024-01-04T19:11:01.576Z,97454.13
2024-01-04T19:16:06.123Z,97477.73
2024-01-04T19:21:09.422Z,97477.70
2024-01-04T19:26:12.861Z,97491.66
2024-01-04T19:31:16.361Z,97507.39
2024-01-04T19:36:20.163Z,97524.06
2024-01-04T19:41:23.768Z,97525.45
2024-01-04T19:46:27.126Z,97537.20
2024-01-04T19:51:30.501Z,97545.84
2024-01-04T19:56:34.010Z,97561.03
2024-01-04T20:01:38.344Z,97563.06
2024-01-04T20:06:41.843Z,97580.59
2024-01-04T20:11:45.553Z,97586.75
2024-01-04T20:16:49.449Z,97584.73
2024-01-04T20:21:56.662Z,97602.34
2024-01-04T20:27:00.028Z,97601.49
2024-01-04T20:32:03.635Z,97615.12
2024-01-04T20:37:08.023Z,97627.63
2024-01-04T20:42:11.357Z,97644.77
2024-01-04T20:47:15.677Z,97651.80
2024-01-04T20:52:18.877Z,97653.10
2024-01-04T20:57:22.076Z,97661.67
2024-01-04T21:02:25.206Z,97660.96
2024-01-04T21:07:31.121Z,97664.08
2024-01-04T21:12:34.285Z,97676.30
2024-01-04T21:17:37.605Z,97691.93
2024-01-04T21:22:41.134Z,97703.14
2024-01-04T21:27:44.326Z,97716.80
2024-01-04T21:32:47.434Z,97720.24
2024-01-04T21:37:50.609Z,97725.95
2024-01-04T21:42:53.764Z,97738.89
2024-01-04T21:47:57.099Z,97748.32
2024-01-04T21:53:00.336Z,97766.20
2024-01-04T21:58:03.813Z,97775.30
2024-01-04T22:03:07.472Z,97777.31
2024-01-04T22:08:10.697Z,97789.36
2024-01-04T22:13:13.882Z,97792.90
2024-01-04T22:18:17.038Z,97806.14
2024-01-04T22:23:20.248Z,97816.75
2024-01-04T22:28:23.429Z,97826.92
2024-01-04T22:33:26.809Z,97829.56
2024-01-04T22:38:30.104Z,97844.86
2024-01-04T22:43:33.743Z,97860.45
2024-01-04T22:48:36.992Z,97872.05
2024-01-04T22:53:40.144Z,97882.66
2024-01-04T22:58:43.319Z,97897.30
2024-01-04T23:03:47.410Z,97906.40
2024-01-04T23:08:50.841Z,97920.05
2024-01-04T23:13:54.294Z,97929.30
2024-01-04T23:18:57.719Z,97930.84
2024-01-04T23:24:01.267Z,97938.99
2024-01-04T23:29:04.637Z,97946.90
2024-01-04T23:34:07.998Z,97959.98
2024-01-04T23:39:11.776Z,97961.34
2024-01-04T23:44:14.927Z,97970.75
2024-01-04T23:49:18.145Z,97987.88
2024-01-04T23:54:21.601Z,98000.20
2024-01-04T23:59:24.782Z,98012.95
